AU-0020 weather

Kukerin
Kukerin WA, Western Australia, Australia

Public forecast

Using degrees Celsius for public forecast. Weather courtesy of forecast.io.

Closest aviation weather report (METAR) to Kukerin

Closest report is Albany Airport, 107.1 nm (198.3 km) S. Retrieved 2020/06/01 05:00 UTC (56 minutes ago):

YABA 010500Z AUTO 33007KT 9999 // OVC020 16/12 Q1026

Closest aviation forecast (TAF) to Kukerin

Closest forecast is Perth Jandakot Airport, 128.8 nm (238.6 km) WNW. Retrieved 2020-06-01 00:00 UTC (6 hours ago):

TAF YPJT 312318Z 0100/0118 10008KT 9999 BKN040 FM011100 09004KT CAVOK